Time;durP1;ratioP1;P1;durP2;ratioP2;P2;SDS_P1;SDS_P2;PMS_P1;PMS_P2;Temp;Humidity;BMP_temperature;BMP_pressure;BME280_temperature;BME280_humidity;BME280_pressure;Samples;Min_cycle;Max_cycle;Signal;HPM_P1;HPM_P2
2022/04/06 00:02:08;;;;;;;0.30;0.10;;;9.00;99.90;;;;;;5062079;28;20985;-84
2022/04/06 00:04:35;;;;;;;0.30;0.10;;;9.00;99.90;;;;;;5056194;28;21220;-84
2022/04/06 00:07:02;;;;;;;0.30;0.10;;;9.00;99.90;;;;;;5053609;28;20447;-86
2022/04/06 00:09:29;;;;;;;0.30;0.10;;;8.90;99.90;;;;;;5063101;28;20546;-85
2022/04/06 00:11:56;;;;;;;0.30;0.10;;;8.90;99.90;;;;;;5055951;28;20457;-84
2022/04/06 00:14:23;;;;;;;0.30;0.10;;;8.90;99.90;;;;;;5063282;28;20485;-85
2022/04/06 00:16:52;;;;;;;0.30;0.10;;;8.90;99.90;;;;;;5057737;28;20813;-86
2022/04/06 00:19:19;;;;;;;0.30;0.10;;;8.90;99.90;;;;;;5063114;28;20484;-84
2022/04/06 00:21:46;;;;;;;0.30;0.10;;;8.80;99.90;;;;;;5053104;28;20514;-84
2022/04/06 00:24:13;;;;;;;0.30;0.10;;;8.80;99.90;;;;;;5058424;28;20468;-85
2022/04/06 00:26:40;;;;;;;0.30;0.10;;;8.80;99.90;;;;;;5056100;28;20512;-86
2022/04/06 00:29:07;;;;;;;0.30;0.20;;;8.80;99.90;;;;;;5060889;28;21133;-85
2022/04/06 00:31:34;;;;;;;0.30;0.10;;;8.80;99.90;;;;;;5050939;28;20452;-85
2022/04/06 00:34:03;;;;;;;0.30;0.10;;;8.80;99.90;;;;;;5062886;28;20505;-85
2022/04/06 00:36:30;;;;;;;0.30;0.10;;;8.80;99.90;;;;;;5061381;28;20465;-85
2022/04/06 00:38:57;;;;;;;0.30;0.10;;;8.80;99.90;;;;;;5059075;28;20457;-84
2022/04/06 00:41:24;;;;;;;0.30;0.10;;;8.80;99.90;;;;;;5059685;28;20460;-85
2022/04/06 00:44:13;;;;;;;0.30;0.10;;;8.80;99.90;;;;;;5059878;28;20455;-85
2022/04/06 00:46:41;;;;;;;0.30;0.20;;;8.80;99.90;;;;;;5054395;28;20441;-85
2022/04/06 00:49:11;;;;;;;0.30;0.10;;;8.80;99.90;;;;;;5052494;28;20488;-85
2022/04/06 00:51:40;;;;;;;0.40;0.30;;;8.80;99.90;;;;;;5059557;28;20444;-86
2022/04/06 00:54:07;;;;;;;0.30;0.10;;;8.80;99.90;;;;;;5055127;28;20451;-86
2022/04/06 00:56:35;;;;;;;0.30;0.10;;;8.80;99.90;;;;;;5061879;28;20455;-86
2022/04/06 00:59:02;;;;;;;0.30;0.10;;;8.80;99.90;;;;;;5054084;28;20555;-84
2022/04/06 01:01:29;;;;;;;0.30;0.20;;;8.80;99.90;;;;;;5061233;28;20449;-85
2022/04/06 01:03:56;;;;;;;0.30;0.10;;;8.80;99.90;;;;;;5060750;28;21102;-85
2022/04/06 01:06:25;;;;;;;0.40;0.40;;;8.80;99.90;;;;;;5056958;28;20977;-84
2022/04/06 01:08:52;;;;;;;0.30;0.20;;;8.80;99.90;;;;;;5061269;28;20447;-88
2022/04/06 01:11:20;;;;;;;0.30;0.10;;;8.80;99.90;;;;;;5056848;28;20552;-88
2022/04/06 01:13:47;;;;;;;0.30;0.10;;;8.80;99.90;;;;;;5055231;28;20968;-85
2022/04/06 01:16:14;;;;;;;0.30;0.10;;;8.80;99.90;;;;;;5061014;28;20456;-85
2022/04/06 01:18:41;;;;;;;0.30;0.10;;;8.80;99.90;;;;;;5068346;28;20536;-85
2022/04/06 01:21:11;;;;;;;0.30;0.10;;;8.80;99.90;;;;;;5066793;28;20575;-85
2022/04/06 01:23:41;;;;;;;0.30;0.10;;;8.80;99.90;;;;;;5060473;28;20947;-84
2022/04/06 01:26:09;;;;;;;0.30;0.10;;;8.80;99.90;;;;;;5053148;28;20455;-85
2022/04/06 01:28:36;;;;;;;0.30;0.17;;;8.80;99.90;;;;;;5058506;28;20472;-85
2022/04/06 01:31:03;;;;;;;0.30;0.10;;;8.80;99.90;;;;;;5060107;28;20480;-85
2022/04/06 01:33:31;;;;;;;0.30;0.10;;;8.90;99.90;;;;;;5063113;28;20478;-86
2022/04/06 01:35:59;;;;;;;0.30;0.20;;;8.90;99.90;;;;;;5064540;28;20486;-85
2022/04/06 01:38:26;;;;;;;0.30;0.20;;;8.90;99.90;;;;;;5077615;28;20444;-83
2022/04/06 01:40:55;;;;;;;0.30;0.10;;;8.90;99.90;;;;;;5074394;28;20447;-84
2022/04/06 01:43:22;;;;;;;0.30;0.10;;;8.90;99.90;;;;;;5057518;28;20455;-85
2022/04/06 01:45:50;;;;;;;0.30;0.10;;;8.90;99.90;;;;;;5061241;28;20443;-84
2022/04/06 01:48:17;;;;;;;0.30;0.10;;;9.00;99.90;;;;;;5060458;28;20521;-85
2022/04/06 01:53:50;;;;;;;0.30;0.10;;;8.90;99.90;;;;;;5003453;28;20521;-85
2022/04/06 01:56:18;;;;;;;0.30;0.10;;;9.00;99.90;;;;;;5002958;28;20510;-87
2022/04/06 01:58:45;;;;;;;0.30;0.10;;;9.00;99.90;;;;;;5029788;28;20494;-85
2022/04/06 02:01:12;;;;;;;0.30;0.10;;;9.00;99.90;;;;;;5055481;28;20501;-85
2022/04/06 02:03:40;;;;;;;0.30;0.10;;;9.00;99.90;;;;;;5063071;28;20540;-85
2022/04/06 02:06:06;;;;;;;0.30;0.10;;;9.00;99.90;;;;;;5053051;28;20479;-85
2022/04/06 02:08:33;;;;;;;0.30;0.10;;;9.00;99.90;;;;;;5061403;28;20530;-84
2022/04/06 02:11:00;;;;;;;0.30;0.10;;;8.90;99.90;;;;;;5060969;28;20487;-84
2022/04/06 02:13:29;;;;;;;0.30;0.10;;;8.90;99.90;;;;;;5058141;28;20436;-86
2022/04/06 02:15:56;;;;;;;0.30;0.20;;;9.00;99.90;;;;;;5064489;28;20528;-86
2022/04/06 02:18:23;;;;;;;0.30;0.10;;;8.90;99.90;;;;;;5060360;28;20440;-84
2022/04/06 02:20:50;;;;;;;0.30;0.10;;;8.90;99.90;;;;;;5065005;28;20490;-86
2022/04/06 02:23:18;;;;;;;0.30;0.10;;;8.90;99.90;;;;;;5059240;28;20468;-85
2022/04/06 02:25:44;;;;;;;0.30;0.10;;;8.90;99.90;;;;;;5064354;28;20436;-85
2022/04/06 02:28:11;;;;;;;0.30;0.10;;;9.00;99.90;;;;;;5060104;28;20448;-84
2022/04/06 02:30:40;;;;;;;0.30;0.10;;;9.00;99.90;;;;;;5063812;28;21024;-86
2022/04/06 02:33:07;;;;;;;0.30;0.10;;;9.00;99.90;;;;;;5061420;28;20463;-87
2022/04/06 02:35:34;;;;;;;0.30;0.10;;;9.00;99.90;;;;;;5063126;28;20491;-85
2022/04/06 02:38:01;;;;;;;0.30;0.10;;;9.00;99.90;;;;;;5055752;28;20452;-87
2022/04/06 02:40:28;;;;;;;0.30;0.10;;;9.00;99.90;;;;;;5055003;28;20784;-86
2022/04/06 02:42:55;;;;;;;0.30;0.10;;;9.00;99.90;;;;;;5060347;28;20476;-87
2022/04/06 02:45:22;;;;;;;0.30;0.10;;;9.00;99.90;;;;;;5060836;28;20912;-86
2022/04/06 02:47:50;;;;;;;0.30;0.10;;;9.00;99.90;;;;;;5049353;28;20538;-85
2022/04/06 02:50:17;;;;;;;0.30;0.10;;;9.00;99.90;;;;;;5061031;28;21083;-86
2022/04/06 02:52:44;;;;;;;0.30;0.10;;;8.90;99.90;;;;;;5056641;28;20920;-87
2022/04/06 02:55:12;;;;;;;0.30;0.10;;;9.00;99.90;;;;;;5053883;28;20455;-86
2022/04/06 02:57:41;;;;;;;0.30;0.20;;;9.00;99.90;;;;;;5056683;28;20551;-86
2022/04/06 03:00:09;;;;;;;0.30;0.10;;;9.00;99.90;;;;;;5057135;28;20463;-86
2022/04/06 03:02:37;;;;;;;0.30;0.13;;;9.00;99.90;;;;;;5060999;28;20482;-85
2022/04/06 03:05:06;;;;;;;0.30;0.10;;;8.90;99.90;;;;;;5062674;28;20443;-86
2022/04/06 03:07:33;;;;;;;0.30;0.10;;;8.90;99.90;;;;;;5052648;28;20517;-87
2022/04/06 03:10:01;;;;;;;0.30;0.10;;;8.90;99.90;;;;;;5062572;28;20448;-85
2022/04/06 03:12:28;;;;;;;0.30;0.10;;;8.90;99.90;;;;;;5058954;28;20513;-88
2022/04/06 03:14:55;;;;;;;0.30;0.10;;;8.90;99.90;;;;;;5055607;28;20441;-85
2022/04/06 03:17:22;;;;;;;0.30;0.10;;;8.90;99.90;;;;;;5057233;28;20448;-85
2022/04/06 03:19:49;;;;;;;0.30;0.10;;;8.90;99.90;;;;;;5054733;28;20476;-85
2022/04/06 03:22:18;;;;;;;0.30;0.10;;;8.90;99.90;;;;;;5053702;28;20449;-86
2022/04/06 03:24:45;;;;;;;0.30;0.20;;;8.90;99.90;;;;;;5055638;28;20540;-85
2022/04/06 03:27:12;;;;;;;0.83;0.83;;;8.90;99.90;;;;;;5059871;28;20555;-87
2022/04/06 03:29:40;;;;;;;0.30;0.10;;;8.90;99.90;;;;;;5048362;28;20523;-85
2022/04/06 03:32:08;;;;;;;0.40;0.20;;;8.90;99.90;;;;;;5054892;28;20841;-87
2022/04/06 03:34:35;;;;;;;0.30;0.20;;;8.90;99.90;;;;;;5058913;28;20870;-86
2022/04/06 03:37:01;;;;;;;0.30;0.10;;;8.80;99.90;;;;;;5051627;28;20452;-84
2022/04/06 03:39:30;;;;;;;0.30;0.20;;;8.80;99.90;;;;;;5066788;28;20844;-85
2022/04/06 03:41:57;;;;;;;0.30;0.10;;;8.70;99.90;;;;;;5072361;28;20455;-85
2022/04/06 03:44:24;;;;;;;0.30;0.10;;;8.70;99.90;;;;;;5055804;28;20436;-85
2022/04/06 03:46:51;;;;;;;0.30;0.10;;;8.70;99.90;;;;;;5054397;28;20487;-85
2022/04/06 03:49:18;;;;;;;0.30;0.10;;;8.70;99.90;;;;;;5061727;28;20848;-85
2022/04/06 03:51:45;;;;;;;0.30;0.10;;;8.70;99.90;;;;;;5061310;28;21060;-86
2022/04/06 03:54:13;;;;;;;0.30;0.10;;;8.60;99.90;;;;;;5061790;28;20520;-85
2022/04/06 03:56:41;;;;;;;0.30;0.20;;;8.70;99.90;;;;;;5053896;28;20452;-85
2022/04/06 03:59:08;;;;;;;0.30;0.10;;;8.70;99.90;;;;;;5062174;28;20463;-85
2022/04/06 04:01:36;;;;;;;0.30;0.20;;;8.70;99.90;;;;;;5066648;28;20459;-87
2022/04/06 04:04:04;;;;;;;0.30;0.20;;;8.70;99.90;;;;;;5064097;28;20448;-85
2022/04/06 04:06:31;;;;;;;0.30;0.10;;;8.70;99.90;;;;;;5062719;28;21021;-86
2022/04/06 04:08:58;;;;;;;0.30;0.10;;;8.70;99.90;;;;;;5047407;28;20577;-86
2022/04/06 04:11:25;;;;;;;0.30;0.20;;;8.80;99.90;;;;;;5053509;28;20534;-84
2022/04/06 04:13:53;;;;;;;0.30;0.20;;;8.80;99.90;;;;;;5063155;28;20456;-86
2022/04/06 04:16:20;;;;;;;0.30;0.10;;;8.80;99.90;;;;;;5068820;28;20900;-85
2022/04/06 04:18:47;;;;;;;0.30;0.10;;;8.80;99.90;;;;;;5067201;28;20456;-86
2022/04/06 04:21:32;;;;;;;0.30;0.10;;;8.80;99.90;;;;;;5071934;28;20488;-84
2022/04/06 04:23:59;;;;;;;0.30;0.10;;;8.80;99.90;;;;;;5059966;28;21406;-85
2022/04/06 04:26:27;;;;;;;0.30;0.10;;;8.70;99.90;;;;;;5058243;28;20469;-85
2022/04/06 04:28:55;;;;;;;0.30;0.13;;;8.80;99.90;;;;;;5056331;28;20476;-84
2022/04/06 04:31:22;;;;;;;0.30;0.10;;;8.80;99.90;;;;;;5049637;28;20484;-86
2022/04/06 04:33:49;;;;;;;0.30;0.10;;;8.80;99.90;;;;;;5055295;28;20517;-83
2022/04/06 04:36:17;;;;;;;0.30;0.10;;;8.70;99.90;;;;;;5056765;28;20473;-84
2022/04/06 04:38:44;;;;;;;0.30;0.10;;;8.80;99.90;;;;;;5050968;28;20494;-84
2022/04/06 04:41:12;;;;;;;0.30;0.20;;;8.70;99.90;;;;;;5061239;28;20459;-87
2022/04/06 04:43:39;;;;;;;0.30;0.10;;;8.70;99.90;;;;;;5054816;28;20522;-84
2022/04/06 04:46:07;;;;;;;0.30;0.10;;;8.60;99.90;;;;;;5053456;28;21155;-84
2022/04/06 04:48:35;;;;;;;0.30;0.10;;;8.70;99.90;;;;;;5054563;28;20951;-84
2022/04/06 04:51:02;;;;;;;0.30;0.10;;;8.60;99.90;;;;;;5059833;28;20549;-85
2022/04/06 04:53:30;;;;;;;0.30;0.10;;;8.60;99.90;;;;;;5063303;28;20489;-84
2022/04/06 04:55:57;;;;;;;0.30;0.10;;;8.60;99.90;;;;;;5053435;28;20468;-82
2022/04/06 04:58:24;;;;;;;0.30;0.20;;;8.70;99.90;;;;;;5059571;28;20456;-82
2022/04/06 05:00:51;;;;;;;0.30;0.10;;;8.70;99.90;;;;;;5063156;28;20467;-82
2022/04/06 05:03:20;;;;;;;0.30;0.10;;;8.70;99.90;;;;;;5056083;28;20472;-82
2022/04/06 05:05:50;;;;;;;0.30;0.10;;;8.70;99.90;;;;;;5053439;28;20951;-82
2022/04/06 05:08:17;;;;;;;0.30;0.10;;;8.60;99.90;;;;;;5049086;28;20526;-82
2022/04/06 05:10:44;;;;;;;0.30;0.10;;;8.70;99.90;;;;;;5048406;28;20481;-82
2022/04/06 05:13:13;;;;;;;0.30;0.10;;;8.70;99.90;;;;;;5048977;28;20522;-84
2022/04/06 05:15:40;;;;;;;0.30;0.10;;;8.80;99.90;;;;;;5049493;28;20463;-83
2022/04/06 05:18:07;;;;;;;0.30;0.10;;;8.70;99.90;;;;;;5050899;28;20461;-83
2022/04/06 05:20:36;;;;;;;0.30;0.10;;;8.70;99.90;;;;;;5046895;28;20533;-83
2022/04/06 05:23:03;;;;;;;0.30;0.10;;;8.80;99.90;;;;;;5040736;28;20900;-83
2022/04/06 05:25:30;;;;;;;0.30;0.20;;;8.80;99.90;;;;;;5042329;28;20511;-85
2022/04/06 05:27:57;;;;;;;0.30;0.20;;;8.90;99.90;;;;;;5048155;28;20514;-83
2022/04/06 05:30:26;;;;;;;0.30;0.10;;;8.80;99.90;;;;;;5046815;28;20449;-83
2022/04/06 05:32:56;;;;;;;0.40;0.20;;;8.90;99.90;;;;;;5048961;28;20448;-84
2022/04/06 05:35:24;;;;;;;0.30;0.10;;;8.90;99.90;;;;;;5047153;28;21296;-82
2022/04/06 05:37:53;;;;;;;0.30;0.20;;;8.90;99.90;;;;;;5048138;28;20445;-83
2022/04/06 05:40:20;;;;;;;0.30;0.13;;;9.00;99.90;;;;;;5049810;28;20523;-84
2022/04/06 05:42:48;;;;;;;0.30;0.20;;;9.10;99.90;;;;;;5045248;28;20940;-84
2022/04/06 05:45:15;;;;;;;0.30;0.10;;;9.10;99.90;;;;;;5052860;28;20449;-86
2022/04/06 05:47:43;;;;;;;0.30;0.13;;;9.10;99.90;;;;;;5046931;28;20498;-83
2022/04/06 05:50:11;;;;;;;0.30;0.10;;;9.10;99.90;;;;;;5054527;28;20448;-83
2022/04/06 05:52:39;;;;;;;0.30;0.20;;;9.10;99.90;;;;;;5045834;28;20533;-83
2022/04/06 05:55:08;;;;;;;0.30;0.10;;;9.10;99.90;;;;;;5044474;28;20444;-82
2022/04/06 05:57:35;;;;;;;0.30;0.10;;;9.20;99.90;;;;;;5046121;28;20514;-83
2022/04/06 06:00:02;;;;;;;0.30;0.17;;;9.30;99.90;;;;;;5042437;28;20456;-85
2022/04/06 06:02:29;;;;;;;0.30;0.10;;;9.40;99.90;;;;;;5047335;28;20506;-86
2022/04/06 06:04:57;;;;;;;0.30;0.10;;;9.60;99.90;;;;;;5048610;28;20839;-84
2022/04/06 06:07:24;;;;;;;0.30;0.10;;;9.60;99.90;;;;;;5046521;28;20452;-85
2022/04/06 06:09:51;;;;;;;0.30;0.10;;;9.60;99.90;;;;;;5047760;28;20552;-82
2022/04/06 06:12:19;;;;;;;0.40;0.30;;;9.60;99.90;;;;;;5034313;28;20550;-83
2022/04/06 06:14:46;;;;;;;0.30;0.20;;;9.60;99.90;;;;;;5047317;28;20510;-83
2022/04/06 06:17:13;;;;;;;0.30;0.10;;;9.70;99.90;;;;;;5057477;28;20447;-86
2022/04/06 06:19:40;;;;;;;0.30;0.10;;;9.70;99.90;;;;;;5045835;28;20472;-83
2022/04/06 06:22:07;;;;;;;0.30;0.10;;;9.80;99.90;;;;;;5039309;28;20548;-82
2022/04/06 06:24:34;;;;;;;0.30;0.10;;;9.80;99.90;;;;;;5045158;28;20455;-84
2022/04/06 06:27:01;;;;;;;0.30;0.20;;;9.80;99.90;;;;;;5049670;28;20620;-84
2022/04/06 06:29:29;;;;;;;0.30;0.10;;;10.00;99.90;;;;;;5062430;28;20444;-83
2022/04/06 06:31:56;;;;;;;0.30;0.10;;;10.10;99.90;;;;;;5050554;28;20883;-84
2022/04/06 06:34:23;;;;;;;0.30;0.20;;;10.10;99.90;;;;;;5049224;28;20448;-83
2022/04/06 06:36:50;;;;;;;0.30;0.20;;;10.40;99.90;;;;;;5044302;28;20468;-84
2022/04/06 06:39:17;;;;;;;0.40;0.30;;;10.60;99.90;;;;;;5046819;28;21029;-83
2022/04/06 06:41:44;;;;;;;0.30;0.20;;;10.90;99.90;;;;;;5041194;28;20503;-81
2022/04/06 06:44:11;;;;;;;0.30;0.20;;;11.40;99.90;;;;;;5033078;28;20460;-85
2022/04/06 06:46:39;;;;;;;0.30;0.20;;;11.80;99.90;;;;;;5044942;28;20534;-83
2022/04/06 06:49:07;;;;;;;0.30;0.20;;;11.80;99.90;;;;;;5037213;28;20634;-84
2022/04/06 06:51:34;;;;;;;0.30;0.10;;;12.00;99.90;;;;;;5029910;28;21002;-85
2022/04/06 06:54:02;;;;;;;0.30;0.20;;;12.10;99.90;;;;;;5051489;28;20539;-86
2022/04/06 06:56:29;;;;;;;1.13;0.30;;;12.30;99.90;;;;;;5038035;28;20740;-85
2022/04/06 06:58:56;;;;;;;0.30;0.20;;;12.30;99.90;;;;;;5051945;28;20539;-84
2022/04/06 07:01:23;;;;;;;0.30;0.20;;;12.10;99.90;;;;;;5076010;28;21007;-86
2022/04/06 07:03:51;;;;;;;0.30;0.20;;;12.30;99.90;;;;;;5053453;28;20855;-84
2022/04/06 07:06:18;;;;;;;0.30;0.20;;;12.40;99.90;;;;;;5043364;28;20499;-84
2022/04/06 07:08:45;;;;;;;0.40;0.40;;;12.50;99.90;;;;;;5028093;28;20466;-84
2022/04/06 07:11:12;;;;;;;0.30;0.20;;;12.60;99.90;;;;;;5044176;28;20505;-84
2022/04/06 07:13:39;;;;;;;0.30;0.20;;;12.60;99.90;;;;;;5037088;28;20467;-85
2022/04/06 07:16:07;;;;;;;0.30;0.20;;;12.50;99.90;;;;;;5051392;28;20514;-84
2022/04/06 07:18:34;;;;;;;0.30;0.10;;;12.70;99.90;;;;;;5048536;28;20468;-85
2022/04/06 07:21:03;;;;;;;0.30;0.10;;;12.90;99.90;;;;;;5042263;28;20499;-84
2022/04/06 07:23:30;;;;;;;0.30;0.20;;;13.10;99.90;;;;;;5041739;28;20463;-84
2022/04/06 07:25:57;;;;;;;0.30;0.10;;;13.20;99.90;;;;;;5047966;28;20454;-83
2022/04/06 07:28:24;;;;;;;0.30;0.20;;;13.10;99.90;;;;;;5050054;28;20476;-85
2022/04/06 07:30:51;;;;;;;0.30;0.20;;;12.90;99.90;;;;;;5040688;28;20523;-83
2022/04/06 07:33:18;;;;;;;0.30;0.20;;;12.90;99.90;;;;;;5045665;28;20887;-84
2022/04/06 07:35:46;;;;;;;0.30;0.20;;;12.70;99.90;;;;;;5051116;28;20441;-84
2022/04/06 07:38:14;;;;;;;0.30;0.20;;;12.60;99.90;;;;;;5060927;28;20974;-86
2022/04/06 07:40:42;;;;;;;0.30;0.20;;;12.50;99.90;;;;;;5070256;28;20447;-87
2022/04/06 07:43:10;;;;;;;0.30;0.20;;;12.50;99.90;;;;;;5051525;28;20544;-85
2022/04/06 07:45:38;;;;;;;0.87;0.40;;;12.40;99.90;;;;;;5049739;28;20452;-86
2022/04/06 07:48:05;;;;;;;0.30;0.20;;;12.60;99.90;;;;;;5049847;28;20468;-85
2022/04/06 07:50:32;;;;;;;0.30;0.20;;;12.60;99.90;;;;;;5043470;28;20629;-84
2022/04/06 07:52:59;;;;;;;0.40;0.30;;;12.50;99.90;;;;;;5061176;28;21034;-83
2022/04/06 07:55:29;;;;;;;1.27;0.70;;;12.70;99.90;;;;;;5051005;28;20442;-84
2022/04/06 07:57:56;;;;;;;0.30;0.20;;;13.10;99.90;;;;;;5047880;28;20472;-84
2022/04/06 08:00:24;;;;;;;0.30;0.20;;;13.40;99.90;;;;;;5031669;28;20449;-84
2022/04/06 08:02:52;;;;;;;0.40;0.30;;;13.50;99.90;;;;;;5038085;28;20461;-86
2022/04/06 08:05:19;;;;;;;0.30;0.20;;;13.50;99.90;;;;;;5061348;28;20445;-85
2022/04/06 08:07:50;;;;;;;0.30;0.20;;;13.40;99.90;;;;;;5051004;28;20498;-85
2022/04/06 08:10:18;;;;;;;0.60;0.43;;;13.30;99.90;;;;;;5049842;28;20819;-84
2022/04/06 08:12:47;;;;;;;0.30;0.20;;;13.20;99.90;;;;;;5041682;28;20537;-83
2022/04/06 08:15:15;;;;;;;0.30;0.20;;;13.30;99.90;;;;;;5046789;28;20494;-84
2022/04/06 08:17:44;;;;;;;0.30;0.20;;;13.30;99.90;;;;;;5050462;28;20518;-85
2022/04/06 08:20:13;;;;;;;0.80;0.33;;;13.50;99.90;;;;;;5050493;28;20482;-84
2022/04/06 08:22:40;;;;;;;0.30;0.20;;;13.30;99.90;;;;;;5050946;28;20936;-84
2022/04/06 08:25:08;;;;;;;0.30;0.20;;;13.40;99.90;;;;;;5049665;28;20500;-84
2022/04/06 08:27:39;;;;;;;0.30;0.20;;;13.40;99.90;;;;;;5037857;28;20858;-83
2022/04/06 08:30:10;;;;;;;0.30;0.20;;;13.70;99.90;;;;;;5048371;28;20472;-84
2022/04/06 08:32:37;;;;;;;0.30;0.20;;;13.80;99.90;;;;;;5049735;28;20499;-84
2022/04/06 08:35:05;;;;;;;0.30;0.20;;;13.80;99.90;;;;;;5048680;28;20468;-84
2022/04/06 08:37:33;;;;;;;0.30;0.20;;;13.80;99.90;;;;;;5050683;28;20525;-85
2022/04/06 08:40:00;;;;;;;0.30;0.20;;;13.70;99.90;;;;;;5050060;28;20479;-84
2022/04/06 08:42:32;;;;;;;0.30;0.20;;;13.80;99.90;;;;;;5053018;28;20447;-85
2022/04/06 08:45:01;;;;;;;0.30;0.20;;;13.80;99.90;;;;;;5054668;28;20461;-85
2022/04/06 08:47:31;;;;;;;0.30;0.20;;;14.00;99.90;;;;;;5049747;28;20551;-84
2022/04/06 08:49:59;;;;;;;0.30;0.20;;;14.10;99.90;;;;;;5048976;28;20459;-85
2022/04/06 08:52:26;;;;;;;0.30;0.20;;;14.10;99.90;;;;;;5048407;28;20553;-84
2022/04/06 08:54:53;;;;;;;1.17;0.47;;;14.10;99.90;;;;;;5049681;28;20616;-84
2022/04/06 08:57:20;;;;;;;0.30;0.20;;;14.20;99.90;;;;;;5059571;28;21013;-85
2022/04/06 08:59:49;;;;;;;3.90;0.30;;;14.30;99.90;;;;;;5054937;28;20533;-83
2022/04/06 09:02:19;;;;;;;0.30;0.20;;;14.30;99.90;;;;;;5054706;28;20559;-83
2022/04/06 09:04:52;;;;;;;0.30;0.20;;;14.60;99.90;;;;;;5049623;28;20960;-84
2022/04/06 09:07:22;;;;;;;0.30;0.20;;;14.50;99.90;;;;;;5049655;28;20599;-85
2022/04/06 09:09:53;;;;;;;0.30;0.20;;;14.50;99.90;;;;;;5049238;28;20953;-85
2022/04/06 09:12:22;;;;;;;0.30;0.20;;;14.70;99.90;;;;;;5044048;28;20589;-84
2022/04/06 09:14:49;;;;;;;0.30;0.20;;;14.80;99.90;;;;;;5041406;28;20468;-85
2022/04/06 09:17:20;;;;;;;0.30;0.20;;;14.90;99.90;;;;;;5049599;28;20493;-85
2022/04/06 09:19:50;;;;;;;0.30;0.20;;;15.00;99.90;;;;;;5057437;28;20490;-85
2022/04/06 09:22:18;;;;;;;0.50;0.40;;;15.20;99.90;;;;;;5063637;28;20466;-84
2022/04/06 09:24:57;;;;;;;0.30;0.20;;;15.30;99.90;;;;;;5065836;28;21163;-85
2022/04/06 09:27:30;;;;;;;0.30;0.20;;;15.30;99.90;;;;;;5055699;28;20871;-85
2022/04/06 09:29:57;;;;;;;0.30;0.20;;;15.20;99.90;;;;;;5049484;28;20922;-85
2022/04/06 09:32:24;;;;;;;0.30;0.20;;;15.30;99.90;;;;;;5056505;28;20476;-86
2022/04/06 09:34:51;;;;;;;0.40;0.30;;;15.20;99.90;;;;;;5075534;28;20507;-85
2022/04/06 09:37:30;;;;;;;0.30;0.20;;;15.30;99.90;;;;;;5075502;28;20448;-86
2022/04/06 09:40:07;;;;;;;0.30;0.20;;;15.50;99.90;;;;;;5077102;28;20951;-86
2022/04/06 09:42:34;;;;;;;0.30;0.20;;;15.60;99.80;;;;;;5059826;28;21037;-86
2022/04/06 09:48:01;;;;;;;0.40;0.40;;;16.00;99.90;;;;;;4985758;28;20441;-88
2022/04/06 09:50:29;;;;;;;1.03;0.30;;;16.20;99.90;;;;;;4987816;28;20457;-89
2022/04/06 09:52:59;;;;;;;0.30;0.20;;;16.10;98.90;;;;;;5012758;28;20761;-91
2022/04/06 09:55:26;;;;;;;0.30;0.20;;;16.00;99.50;;;;;;5045811;28;20458;-87
2022/04/06 09:57:58;;;;;;;0.40;0.20;;;16.10;99.90;;;;;;5046695;28;20478;-87
2022/04/06 10:00:28;;;;;;;0.40;0.20;;;16.40;99.90;;;;;;5029637;28;21023;-87
2022/04/06 10:03:02;;;;;;;0.30;0.27;;;16.40;98.70;;;;;;5043667;28;20459;-88
2022/04/06 10:05:31;;;;;;;0.30;0.20;;;16.10;98.30;;;;;;5048778;28;20972;-86
2022/04/06 10:08:02;;;;;;;0.30;0.20;;;16.20;98.00;;;;;;5048518;28;21037;-87
2022/04/06 10:10:29;;;;;;;0.30;0.20;;;16.00;97.20;;;;;;5048601;28;20449;-87
2022/04/06 10:12:58;;;;;;;0.30;0.20;;;16.00;99.10;;;;;;5063020;28;20592;-87
2022/04/06 10:15:26;;;;;;;0.30;0.20;;;16.10;98.50;;;;;;5052560;28;20463;-86
2022/04/06 10:17:54;;;;;;;0.30;0.20;;;16.20;97.90;;;;;;5047056;28;20619;-86
2022/04/06 10:20:26;;;;;;;0.30;0.20;;;16.10;96.40;;;;;;5047178;28;20535;-87
2022/04/06 10:23:08;;;;;;;0.30;0.20;;;16.20;97.80;;;;;;5050592;28;20549;-87
2022/04/06 10:25:48;;;;;;;0.40;0.40;;;16.20;98.40;;;;;;5040952;28;20459;-86
2022/04/06 10:28:17;;;;;;;0.50;0.30;;;16.30;97.50;;;;;;5034707;28;20522;-84
2022/04/06 10:31:17;;;;;;;0.30;0.20;;;16.60;96.60;;;;;;5046817;28;21063;-84
2022/04/06 10:33:45;;;;;;;0.30;0.20;;;16.60;97.30;;;;;;5048420;28;20523;-85
2022/04/06 10:36:20;;;;;;;0.40;0.40;;;16.30;96.70;;;;;;5058693;28;20518;-83
2022/04/06 10:39:13;;;;;;;0.30;0.20;;;16.30;97.00;;;;;;5048100;28;20459;-85
2022/04/06 10:42:01;;;;;;;0.30;0.20;;;16.30;95.30;;;;;;5053110;28;20452;-85
2022/04/06 10:44:41;;;;;;;2.40;0.30;;;16.50;95.80;;;;;;5046910;28;20866;-83
2022/04/06 10:47:10;;;;;;;0.97;0.30;;;16.50;96.70;;;;;;5047376;28;20947;-87
2022/04/06 10:49:37;;;;;;;0.30;0.20;;;16.40;96.50;;;;;;5049132;28;20512;-87
2022/04/06 10:52:22;;;;;;;0.30;0.20;;;16.30;95.70;;;;;;5054065;28;20466;-87
2022/04/06 10:54:52;;;;;;;0.50;0.50;;;16.30;97.00;;;;;;5047727;28;21013;-87
2022/04/06 10:57:20;;;;;;;0.30;0.20;;;16.50;95.30;;;;;;5044241;28;20472;-87
2022/04/06 11:00:15;;;;;;;0.40;0.30;;;16.70;95.50;;;;;;5047710;28;20452;-87
2022/04/06 11:02:50;;;;;;;0.30;0.20;;;16.70;95.90;;;;;;5047670;28;20455;-86
2022/04/06 11:05:52;;;;;;;0.30;0.20;;;17.00;95.80;;;;;;5053106;28;20905;-85
2022/04/06 11:11:45;;;;;;;0.30;0.20;;;17.20;94.10;;;;;;5045694;28;20450;-85
2022/04/06 11:14:14;;;;;;;0.40;0.30;;;17.70;93.40;;;;;;5047681;28;20480;-90
2022/04/06 11:16:46;;;;;;;0.63;0.57;;;18.00;93.10;;;;;;5042389;28;20470;-89
2022/04/06 11:19:13;;;;;;;0.30;0.20;;;18.10;92.10;;;;;;5053091;28;20512;-85
2022/04/06 11:21:48;;;;;;;0.30;0.20;;;17.90;91.70;;;;;;5031302;28;20999;-84
2022/04/06 11:24:20;;;;;;;0.40;0.30;;;17.70;91.50;;;;;;5029756;28;20871;-86
2022/04/06 11:26:48;;;;;;;0.30;0.20;;;18.10;91.20;;;;;;5036872;28;20461;-88
2022/04/06 11:29:15;;;;;;;0.40;0.20;;;18.20;90.70;;;;;;5041568;28;20506;-87
2022/04/06 11:31:59;;;;;;;0.30;0.20;;;18.10;92.20;;;;;;5047461;28;20441;-85
2022/04/06 11:34:38;;;;;;;0.30;0.20;;;18.00;91.50;;;;;;5051816;28;20483;-84
2022/04/06 11:37:07;;;;;;;0.30;0.20;;;18.10;92.20;;;;;;5062797;28;20526;-85
2022/04/06 11:39:35;;;;;;;0.90;0.90;;;17.80;92.10;;;;;;5053745;28;20449;-85
2022/04/06 11:42:05;;;;;;;0.40;0.27;;;17.60;93.00;;;;;;5047418;28;20451;-88
2022/04/06 11:44:33;;;;;;;0.30;0.20;;;16.90;94.30;;;;;;5048389;28;20479;-88
2022/04/06 11:47:00;;;;;;;0.30;0.20;;;16.90;94.50;;;;;;5044028;28;20995;-84
2022/04/06 11:49:29;;;;;;;0.47;0.30;;;16.90;94.90;;;;;;5056414;28;20438;-85
2022/04/06 11:51:57;;;;;;;0.30;0.20;;;17.00;94.80;;;;;;5060477;28;20947;-85
2022/04/06 11:54:25;;;;;;;0.60;0.37;;;17.10;94.70;;;;;;5055778;28;20562;-85
2022/04/06 11:56:53;;;;;;;0.30;0.20;;;17.40;93.80;;;;;;5051335;28;21123;-86
2022/04/06 11:59:22;;;;;;;0.30;0.20;;;17.20;91.50;;;;;;5058825;28;20460;-85
2022/04/06 12:01:50;;;;;;;1.73;0.70;;;17.20;91.30;;;;;;5052015;28;20978;-86
2022/04/06 12:04:21;;;;;;;0.50;0.43;;;17.50;91.50;;;;;;5057312;28;20456;-87
2022/04/06 12:06:48;;;;;;;0.40;0.27;;;17.50;92.10;;;;;;5041690;28;20588;-85
2022/04/06 12:09:15;;;;;;;0.30;0.20;;;17.60;91.90;;;;;;5055532;28;20547;-85
2022/04/06 12:11:43;;;;;;;0.50;0.20;;;17.30;92.00;;;;;;5043478;28;21017;-86
2022/04/06 12:14:11;;;;;;;0.30;0.20;;;17.40;91.40;;;;;;5066131;28;20745;-85
2022/04/06 12:16:41;;;;;;;0.57;0.50;;;17.80;92.70;;;;;;5069052;28;20522;-86
2022/04/06 12:19:13;;;;;;;0.30;0.20;;;17.70;91.60;;;;;;5057843;28;20542;-85
2022/04/06 12:21:44;;;;;;;0.60;0.40;;;17.90;91.40;;;;;;5056270;28;20457;-86
2022/04/06 12:24:12;;;;;;;0.40;0.30;;;18.00;91.80;;;;;;5047716;28;20509;-87
2022/04/06 12:26:45;;;;;;;0.30;0.20;;;18.00;93.00;;;;;;5043730;28;20566;-86
2022/04/06 12:29:16;;;;;;;0.60;0.60;;;17.70;93.00;;;;;;5057515;28;20528;-86
2022/04/06 12:31:46;;;;;;;0.70;0.40;;;17.60;91.90;;;;;;5053687;28;20441;-85
2022/04/06 12:34:29;;;;;;;0.40;0.20;;;17.80;91.50;;;;;;5071783;28;20483;-85
2022/04/06 12:36:57;;;;;;;0.30;0.20;;;18.00;91.20;;;;;;5061180;28;20498;-85
2022/04/06 12:39:24;;;;;;;0.40;0.30;;;17.80;91.00;;;;;;5065301;28;20521;-85
2022/04/06 12:41:56;;;;;;;0.30;0.20;;;17.60;90.20;;;;;;5066952;28;20471;-86
2022/04/06 12:44:23;;;;;;;0.60;0.30;;;17.50;90.30;;;;;;5042404;28;20456;-87
2022/04/06 12:46:52;;;;;;;0.30;0.20;;;17.60;91.20;;;;;;5052497;28;20469;-86
2022/04/06 12:49:25;;;;;;;0.30;0.20;;;17.60;90.20;;;;;;5046983;28;20543;-85
2022/04/06 12:52:08;;;;;;;0.30;0.20;;;17.90;91.20;;;;;;5059062;28;20503;-85
2022/04/06 12:54:36;;;;;;;0.30;0.20;;;17.90;90.30;;;;;;5068675;28;20494;-85
2022/04/06 12:57:07;;;;;;;0.57;0.27;;;17.80;90.90;;;;;;5075062;28;20464;-86
2022/04/06 12:59:38;;;;;;;0.70;0.20;;;17.60;91.60;;;;;;5057975;28;20452;-85
2022/04/06 13:02:22;;;;;;;0.30;0.20;;;18.00;92.70;;;;;;5063109;28;20513;-86
2022/04/06 13:04:50;;;;;;;0.30;0.20;;;18.50;90.70;;;;;;5053530;28;20461;-86
2022/04/06 13:07:17;;;;;;;0.40;0.30;;;18.70;86.50;;;;;;5054746;28;20452;-87
2022/04/06 13:09:50;;;;;;;0.77;0.77;;;18.60;88.10;;;;;;5049002;28;20457;-86
2022/04/06 13:12:17;;;;;;;0.40;0.30;;;18.30;87.30;;;;;;5053972;28;20459;-85